COG3MD GOOY-GGOV
Flight info
| Callsign | COG3MD |
|---|---|
| Flight time | 0h 48m |
| Altitude | 19000 |
| Route | BJ B600 POTOX DCT AMLIX DCT SENUB |
| Aircraft | DH8D/M-SDE2E3FGRY/H |
Departure
| Time | 2026-04-28 08:54 |
|---|---|
| Airport | Léopold Sédar Senghor International Airport (GOOY) |
Arrival
| Time | 2026-04-28 09:43 |
|---|---|
| Airport | Osvaldo Vieira International Airport (GGOV) |
| Time | Latitude | Longitude | Altitude | Speed | Heading |
|---|---|---|---|---|---|
| 2026-04-28 08:26 | 14.74099 | -17.48907 | 86 ft | 0 kts | 339° |
| 2026-04-28 08:47 | 14.74105 | -17.48908 | 86 ft | 2 kts | 5° |
| 2026-04-28 08:48 | 14.74119 | -17.48873 | 87 ft | 9 kts | 94° |
| 2026-04-28 08:48 | 14.74098 | -17.48787 | 87 ft | 15 kts | 107° |
| 2026-04-28 08:48 | 14.74091 | -17.48698 | 87 ft | 13 kts | 39° |
| 2026-04-28 08:48 | 14.74190 | -17.48662 | 90 ft | 14 kts | 17° |
| 2026-04-28 08:49 | 14.74267 | -17.48630 | 92 ft | 12 kts | 50° |
| 2026-04-28 08:49 | 14.74272 | -17.48522 | 92 ft | 17 kts | 79° |
| 2026-04-28 08:49 | 14.74300 | -17.48381 | 94 ft | 22 kts | 79° |
| 2026-04-28 08:49 | 14.74330 | -17.48230 | 96 ft | 18 kts | 80° |
| 2026-04-28 08:50 | 14.74329 | -17.48112 | 98 ft | 14 kts | 115° |
| 2026-04-28 08:50 | 14.74273 | -17.47996 | 99 ft | 21 kts | 114° |
| 2026-04-28 08:50 | 14.74158 | -17.47899 | 98 ft | 25 kts | 172° |
| 2026-04-28 08:50 | 14.73972 | -17.47874 | 99 ft | 26 kts | 173° |
| 2026-04-28 08:51 | 14.73794 | -17.47851 | 100 ft | 24 kts | 172° |
| 2026-04-28 08:51 | 14.73626 | -17.47827 | 101 ft | 23 kts | 172° |
| 2026-04-28 08:51 | 14.73462 | -17.47805 | 101 ft | 23 kts | 173° |
| 2026-04-28 08:51 | 14.73298 | -17.47784 | 100 ft | 23 kts | 172° |
| 2026-04-28 08:52 | 14.73133 | -17.47761 | 97 ft | 24 kts | 173° |
| 2026-04-28 08:52 | 14.72962 | -17.47739 | 94 ft | 24 kts | 173° |
| 2026-04-28 08:52 | 14.72801 | -17.47716 | 92 ft | 18 kts | 171° |
| 2026-04-28 08:52 | 14.72697 | -17.47678 | 90 ft | 11 kts | 141° |
| 2026-04-28 08:53 | 14.72643 | -17.47677 | 90 ft | 10 kts | 264° |
| 2026-04-28 08:53 | 14.72679 | -17.47703 | 90 ft | 0 kts | 352° |
| 2026-04-28 08:53 | 14.72718 | -17.47709 | 91 ft | 19 kts | 352° |
| 2026-04-28 08:53 | 14.73049 | -17.47753 | 96 ft | 75 kts | 351° |
| 2026-04-28 08:54 | 14.73803 | -17.47857 | 100 ft | 137 kts | 352° |
| 2026-04-28 08:54 | 14.74859 | -17.47966 | 249 ft | 160 kts | 355° |
| 2026-04-28 08:54 | 14.76035 | -17.48026 | 571 ft | 175 kts | 355° |
| 2026-04-28 08:54 | 14.77245 | -17.48102 | 1191 ft | 174 kts | 356° |
| 2026-04-28 08:55 | 14.78451 | -17.48308 | 1806 ft | 175 kts | 340° |
| 2026-04-28 08:55 | 14.79415 | -17.49169 | 2278 ft | 185 kts | 304° |
| 2026-04-28 08:55 | 14.79789 | -17.50542 | 2787 ft | 194 kts | 270° |
| 2026-04-28 08:55 | 14.79312 | -17.51884 | 3309 ft | 199 kts | 234° |
| 2026-04-28 08:56 | 14.78100 | -17.52844 | 3889 ft | 201 kts | 210° |
| 2026-04-28 08:56 | 14.76727 | -17.53420 | 4462 ft | 203 kts | 201° |
| 2026-04-28 08:56 | 14.75297 | -17.53935 | 5067 ft | 203 kts | 199° |
| 2026-04-28 08:56 | 14.73792 | -17.54209 | 5648 ft | 204 kts | 182° |
| 2026-04-28 08:57 | 14.72335 | -17.54209 | 6211 ft | 204 kts | 181° |
| 2026-04-28 08:57 | 14.70743 | -17.54128 | 6786 ft | 205 kts | 178° |
| 2026-04-28 08:57 | 14.69245 | -17.53783 | 7283 ft | 209 kts | 154° |
| 2026-04-28 08:57 | 14.67987 | -17.52942 | 7812 ft | 209 kts | 148° |
| 2026-04-28 08:58 | 14.66706 | -17.52047 | 8324 ft | 211 kts | 148° |
| 2026-04-28 08:58 | 14.65517 | -17.51229 | 8799 ft | 211 kts | 149° |
| 2026-04-28 08:58 | 14.64234 | -17.50357 | 9306 ft | 212 kts | 149° |
| 2026-04-28 08:58 | 14.62856 | -17.49431 | 9833 ft | 213 kts | 150° |
| 2026-04-28 08:59 | 14.61576 | -17.48577 | 10301 ft | 215 kts | 150° |
| 2026-04-28 08:59 | 14.60173 | -17.47648 | 10770 ft | 217 kts | 151° |
| 2026-04-28 08:59 | 14.58816 | -17.46751 | 11223 ft | 219 kts | 151° |
| 2026-04-28 08:59 | 14.57443 | -17.45847 | 11667 ft | 220 kts | 151° |
| 2026-04-28 09:00 | 14.56003 | -17.44904 | 12104 ft | 223 kts | 152° |
| 2026-04-28 09:00 | 14.55117 | -17.44331 | 12363 ft | 224 kts | 152° |
| 2026-04-28 09:00 | 14.53278 | -17.43141 | 12901 ft | 226 kts | 152° |
| 2026-04-28 09:00 | 14.51857 | -17.42220 | 13287 ft | 228 kts | 153° |
| 2026-04-28 09:01 | 14.50473 | -17.41320 | 13651 ft | 229 kts | 152° |
| 2026-04-28 09:01 | 14.49041 | -17.40388 | 13981 ft | 233 kts | 153° |
| 2026-04-28 09:01 | 14.47634 | -17.39472 | 14286 ft | 236 kts | 152° |
| 2026-04-28 09:01 | 14.46650 | -17.38831 | 14514 ft | 237 kts | 152° |
| 2026-04-28 09:02 | 14.44646 | -17.37524 | 14923 ft | 241 kts | 152° |
| 2026-04-28 09:02 | 14.43213 | -17.36589 | 15218 ft | 243 kts | 152° |
| 2026-04-28 09:02 | 14.41659 | -17.35575 | 15525 ft | 245 kts | 152° |
| 2026-04-28 09:02 | 14.40152 | -17.34592 | 15799 ft | 248 kts | 152° |
| 2026-04-28 09:03 | 14.38614 | -17.33589 | 16070 ft | 250 kts | 152° |
| 2026-04-28 09:03 | 14.37112 | -17.32608 | 16342 ft | 252 kts | 152° |
| 2026-04-28 09:03 | 14.35577 | -17.31607 | 16600 ft | 254 kts | 152° |
| 2026-04-28 09:03 | 14.33928 | -17.30532 | 16853 ft | 257 kts | 152° |
| 2026-04-28 09:04 | 14.32353 | -17.29505 | 17083 ft | 260 kts | 152° |
| 2026-04-28 09:04 | 14.30747 | -17.28458 | 17354 ft | 260 kts | 152° |
| 2026-04-28 09:04 | 14.29046 | -17.27349 | 17584 ft | 263 kts | 152° |
| 2026-04-28 09:04 | 14.27471 | -17.26322 | 17849 ft | 264 kts | 152° |
| 2026-04-28 09:05 | 14.25942 | -17.25325 | 18082 ft | 265 kts | 152° |
| 2026-04-28 09:05 | 14.24333 | -17.24276 | 18337 ft | 265 kts | 152° |
| 2026-04-28 09:05 | 14.22681 | -17.23199 | 18596 ft | 265 kts | 152° |
| 2026-04-28 09:05 | 14.20977 | -17.22089 | 18839 ft | 266 kts | 152° |
| 2026-04-28 09:06 | 14.19353 | -17.21034 | 18944 ft | 274 kts | 152° |
| 2026-04-28 09:06 | 14.17581 | -17.19883 | 18981 ft | 284 kts | 152° |
| 2026-04-28 09:06 | 14.15807 | -17.18730 | 18990 ft | 295 kts | 151° |
| 2026-04-28 09:06 | 14.13980 | -17.17543 | 18993 ft | 306 kts | 151° |
| 2026-04-28 09:07 | 14.12084 | -17.16309 | 18992 ft | 317 kts | 151° |
| 2026-04-28 09:07 | 14.10193 | -17.15078 | 18993 ft | 326 kts | 151° |
| 2026-04-28 09:07 | 14.08252 | -17.13815 | 18991 ft | 333 kts | 151° |
| 2026-04-28 09:07 | 14.06137 | -17.12437 | 18988 ft | 338 kts | 151° |
| 2026-04-28 09:08 | 14.04036 | -17.11070 | 18987 ft | 343 kts | 151° |
| 2026-04-28 09:08 | 14.01849 | -17.09648 | 18982 ft | 347 kts | 150° |
| 2026-04-28 09:08 | 13.99762 | -17.08290 | 18974 ft | 350 kts | 150° |
| 2026-04-28 09:08 | 13.97577 | -17.06870 | 18970 ft | 352 kts | 150° |
| 2026-04-28 09:09 | 13.95418 | -17.05466 | 18965 ft | 354 kts | 150° |
| 2026-04-28 09:09 | 13.93367 | -17.04133 | 18965 ft | 355 kts | 150° |
| 2026-04-28 09:09 | 13.91134 | -17.02682 | 18966 ft | 357 kts | 150° |
| 2026-04-28 09:09 | 13.88992 | -17.01291 | 18963 ft | 358 kts | 150° |
| 2026-04-28 09:10 | 13.86897 | -16.99931 | 18962 ft | 359 kts | 150° |
| 2026-04-28 09:10 | 13.84758 | -16.98543 | 18960 ft | 360 kts | 150° |
| 2026-04-28 09:10 | 13.82568 | -16.97122 | 18964 ft | 360 kts | 150° |
| 2026-04-28 09:10 | 13.80372 | -16.95698 | 18965 ft | 361 kts | 150° |
| 2026-04-28 09:11 | 13.78186 | -16.94281 | 18966 ft | 362 kts | 150° |
| 2026-04-28 09:11 | 13.75878 | -16.92785 | 18961 ft | 362 kts | 150° |
| 2026-04-28 09:11 | 13.73700 | -16.91375 | 18975 ft | 362 kts | 150° |
| 2026-04-28 09:11 | 13.71445 | -16.89914 | 18976 ft | 362 kts | 150° |
| 2026-04-28 09:12 | 13.69228 | -16.88478 | 18966 ft | 362 kts | 150° |
| 2026-04-28 09:12 | 13.67063 | -16.87076 | 18968 ft | 363 kts | 150° |
| 2026-04-28 09:12 | 13.64787 | -16.85602 | 18977 ft | 363 kts | 150° |
| 2026-04-28 09:12 | 13.62633 | -16.84208 | 18973 ft | 363 kts | 150° |
| 2026-04-28 09:13 | 13.60392 | -16.82758 | 18972 ft | 363 kts | 150° |
| 2026-04-28 09:13 | 13.58166 | -16.81318 | 18985 ft | 363 kts | 150° |
| 2026-04-28 09:13 | 13.55985 | -16.79907 | 18976 ft | 364 kts | 150° |
| 2026-04-28 09:13 | 13.53802 | -16.78496 | 18975 ft | 364 kts | 150° |
| 2026-04-28 09:14 | 13.51641 | -16.77099 | 18973 ft | 364 kts | 150° |
| 2026-04-28 09:14 | 13.49460 | -16.75689 | 18972 ft | 365 kts | 150° |
| 2026-04-28 09:14 | 13.47325 | -16.74310 | 18975 ft | 365 kts | 150° |
| 2026-04-28 09:14 | 13.45179 | -16.72923 | 18971 ft | 365 kts | 150° |
| 2026-04-28 09:15 | 13.42996 | -16.71513 | 18969 ft | 365 kts | 150° |
| 2026-04-28 09:15 | 13.40984 | -16.70213 | 18968 ft | 365 kts | 150° |
| 2026-04-28 09:15 | 13.38814 | -16.68813 | 18973 ft | 365 kts | 150° |
| 2026-04-28 09:15 | 13.36647 | -16.67414 | 18977 ft | 365 kts | 150° |
| 2026-04-28 09:16 | 13.34515 | -16.66036 | 18975 ft | 366 kts | 150° |
| 2026-04-28 09:16 | 13.32426 | -16.64493 | 18972 ft | 367 kts | 144° |
| 2026-04-28 09:16 | 13.30434 | -16.62852 | 18971 ft | 367 kts | 143° |
| 2026-04-28 09:16 | 13.28458 | -16.61219 | 18969 ft | 367 kts | 143° |
| 2026-04-28 09:17 | 13.26449 | -16.59559 | 18974 ft | 366 kts | 143° |
| 2026-04-28 09:17 | 13.24448 | -16.57909 | 18975 ft | 366 kts | 143° |
| 2026-04-28 09:17 | 13.22483 | -16.56289 | 18972 ft | 367 kts | 143° |
| 2026-04-28 09:17 | 13.20474 | -16.54636 | 18980 ft | 367 kts | 143° |
| 2026-04-28 09:18 | 13.18488 | -16.53003 | 18966 ft | 367 kts | 143° |
| 2026-04-28 09:18 | 13.16471 | -16.51345 | 18977 ft | 366 kts | 143° |
| 2026-04-28 09:18 | 13.14488 | -16.49715 | 18964 ft | 366 kts | 144° |
| 2026-04-28 09:18 | 13.12484 | -16.48069 | 18979 ft | 366 kts | 143° |
| 2026-04-28 09:19 | 13.10470 | -16.46417 | 18976 ft | 366 kts | 143° |
| 2026-04-28 09:19 | 13.08495 | -16.44795 | 18975 ft | 365 kts | 143° |
| 2026-04-28 09:19 | 13.06626 | -16.43262 | 18981 ft | 364 kts | 143° |
| 2026-04-28 09:19 | 13.04647 | -16.41639 | 18973 ft | 364 kts | 143° |
| 2026-04-28 09:20 | 13.02677 | -16.40024 | 18987 ft | 364 kts | 143° |
| 2026-04-28 09:20 | 13.00676 | -16.38384 | 18977 ft | 364 kts | 143° |
| 2026-04-28 09:20 | 12.98703 | -16.36767 | 18987 ft | 364 kts | 143° |
| 2026-04-28 09:20 | 12.96726 | -16.35148 | 18992 ft | 364 kts | 143° |
| 2026-04-28 09:21 | 12.94742 | -16.33522 | 18973 ft | 363 kts | 144° |
| 2026-04-28 09:21 | 12.92769 | -16.31906 | 18968 ft | 363 kts | 144° |
| 2026-04-28 09:21 | 12.90799 | -16.30293 | 18980 ft | 362 kts | 144° |
| 2026-04-28 09:21 | 12.88824 | -16.28677 | 18987 ft | 362 kts | 143° |
| 2026-04-28 09:22 | 12.86854 | -16.27064 | 18983 ft | 361 kts | 144° |
| 2026-04-28 09:22 | 12.84869 | -16.25441 | 18976 ft | 361 kts | 144° |
| 2026-04-28 09:22 | 12.82895 | -16.23826 | 18981 ft | 361 kts | 143° |
| 2026-04-28 09:22 | 12.80919 | -16.22209 | 18981 ft | 362 kts | 143° |
| 2026-04-28 09:23 | 12.78950 | -16.20602 | 18982 ft | 362 kts | 144° |
| 2026-04-28 09:23 | 12.76966 | -16.18984 | 18976 ft | 362 kts | 144° |
| 2026-04-28 09:23 | 12.74982 | -16.17364 | 18971 ft | 362 kts | 143° |
| 2026-04-28 09:23 | 12.73155 | -16.15873 | 18983 ft | 361 kts | 143° |
| 2026-04-28 09:24 | 12.71163 | -16.14246 | 18976 ft | 361 kts | 143° |
| 2026-04-28 09:24 | 12.69177 | -16.12624 | 18973 ft | 361 kts | 143° |
| 2026-04-28 09:24 | 12.67185 | -16.10997 | 18977 ft | 361 kts | 143° |
| 2026-04-28 09:24 | 12.65205 | -16.09380 | 18974 ft | 361 kts | 143° |
| 2026-04-28 09:25 | 12.63233 | -16.07769 | 18972 ft | 360 kts | 143° |
| 2026-04-28 09:25 | 12.61241 | -16.06142 | 18719 ft | 361 kts | 143° |
| 2026-04-28 09:25 | 12.59254 | -16.04519 | 18382 ft | 363 kts | 143° |
| 2026-04-28 09:25 | 12.57270 | -16.02897 | 18000 ft | 360 kts | 143° |
| 2026-04-28 09:26 | 12.55329 | -16.01308 | 17646 ft | 355 kts | 143° |
| 2026-04-28 09:26 | 12.53405 | -15.99734 | 17281 ft | 352 kts | 143° |
| 2026-04-28 09:26 | 12.51492 | -15.98170 | 16914 ft | 346 kts | 143° |
| 2026-04-28 09:26 | 12.49612 | -15.96634 | 16547 ft | 340 kts | 143° |
| 2026-04-28 09:27 | 12.45966 | -15.93656 | 15865 ft | 328 kts | 143° |
| 2026-04-28 09:27 | 12.44172 | -15.92225 | 15506 ft | 323 kts | 147° |
| 2026-04-28 09:27 | 12.42138 | -15.91367 | 15196 ft | 310 kts | 171° |
| 2026-04-28 09:28 | 12.39984 | -15.91031 | 14858 ft | 305 kts | 174° |
| 2026-04-28 09:28 | 12.37912 | -15.90740 | 14550 ft | 300 kts | 174° |
| 2026-04-28 09:28 | 12.35813 | -15.90451 | 14237 ft | 296 kts | 174° |
| 2026-04-28 09:28 | 12.33799 | -15.90173 | 13943 ft | 294 kts | 174° |
| 2026-04-28 09:29 | 12.32018 | -15.89929 | 13678 ft | 294 kts | 173° |
| 2026-04-28 09:29 | 12.29972 | -15.89648 | 13378 ft | 295 kts | 173° |
| 2026-04-28 09:29 | 12.27923 | -15.89366 | 13076 ft | 296 kts | 173° |
| 2026-04-28 09:29 | 12.25873 | -15.89083 | 12754 ft | 296 kts | 173° |
| 2026-04-28 09:30 | 12.23806 | -15.88797 | 12442 ft | 296 kts | 173° |
| 2026-04-28 09:30 | 12.21725 | -15.88509 | 12135 ft | 296 kts | 172° |
| 2026-04-28 09:30 | 12.19681 | -15.88226 | 11834 ft | 296 kts | 172° |
| 2026-04-28 09:30 | 12.17611 | -15.87939 | 11527 ft | 296 kts | 172° |
| 2026-04-28 09:31 | 12.15564 | -15.87655 | 11221 ft | 296 kts | 172° |
| 2026-04-28 09:31 | 12.13506 | -15.87370 | 10905 ft | 292 kts | 172° |
| 2026-04-28 09:31 | 12.11469 | -15.87086 | 10598 ft | 286 kts | 172° |
| 2026-04-28 09:31 | 12.09484 | -15.86809 | 10305 ft | 282 kts | 172° |
| 2026-04-28 09:32 | 12.07514 | -15.86535 | 10013 ft | 279 kts | 171° |
| 2026-04-28 09:32 | 12.05546 | -15.86263 | 9733 ft | 277 kts | 171° |
| 2026-04-28 09:32 | 12.03636 | -15.85998 | 9442 ft | 276 kts | 171° |
| 2026-04-28 09:32 | 12.01714 | -15.85731 | 9145 ft | 274 kts | 171° |
| 2026-04-28 09:33 | 11.99807 | -15.85467 | 8869 ft | 272 kts | 171° |
| 2026-04-28 09:33 | 11.97919 | -15.85206 | 8592 ft | 271 kts | 171° |
| 2026-04-28 09:33 | 11.96041 | -15.84945 | 8312 ft | 269 kts | 171° |
| 2026-04-28 09:33 | 11.94179 | -15.84685 | 8023 ft | 259 kts | 171° |
| 2026-04-28 09:34 | 11.92427 | -15.84439 | 7751 ft | 246 kts | 170° |
| 2026-04-28 09:34 | 11.90742 | -15.84205 | 7512 ft | 237 kts | 171° |
| 2026-04-28 09:34 | 11.89097 | -15.83978 | 7283 ft | 236 kts | 170° |
| 2026-04-28 09:34 | 11.88009 | -15.83828 | 7115 ft | 236 kts | 170° |
| 2026-04-28 09:35 | 11.85921 | -15.83540 | 6785 ft | 235 kts | 170° |
| 2026-04-28 09:35 | 11.84292 | -15.83315 | 6539 ft | 235 kts | 170° |
| 2026-04-28 09:35 | 11.82651 | -15.83088 | 6300 ft | 234 kts | 170° |
| 2026-04-28 09:35 | 11.81025 | -15.82863 | 6062 ft | 234 kts | 170° |
| 2026-04-28 09:36 | 11.79347 | -15.82630 | 5808 ft | 234 kts | 170° |
| 2026-04-28 09:36 | 11.77662 | -15.82397 | 5559 ft | 234 kts | 170° |
| 2026-04-28 09:36 | 11.76059 | -15.82175 | 5320 ft | 234 kts | 170° |
| 2026-04-28 09:36 | 11.74357 | -15.81904 | 5002 ft | 236 kts | 162° |
| 2026-04-28 09:37 | 11.73037 | -15.81026 | 4750 ft | 224 kts | 123° |
| 2026-04-28 09:37 | 11.72364 | -15.79570 | 4549 ft | 219 kts | 109° |
| 2026-04-28 09:37 | 11.71764 | -15.78019 | 4337 ft | 213 kts | 109° |
| 2026-04-28 09:37 | 11.71225 | -15.76631 | 4245 ft | 209 kts | 109° |
| 2026-04-28 09:38 | 11.70652 | -15.75156 | 4127 ft | 206 kts | 109° |
| 2026-04-28 09:38 | 11.70175 | -15.73775 | 3994 ft | 205 kts | 97° |
| 2026-04-28 09:38 | 11.70387 | -15.72363 | 3797 ft | 200 kts | 57° |
| 2026-04-28 09:38 | 11.71470 | -15.71445 | 3623 ft | 197 kts | 26° |
| 2026-04-28 09:39 | 11.72717 | -15.70948 | 3485 ft | 185 kts | 18° |
| 2026-04-28 09:39 | 11.74010 | -15.70582 | 3410 ft | 176 kts | 15° |
| 2026-04-28 09:39 | 11.75174 | -15.70281 | 3411 ft | 169 kts | 16° |
| 2026-04-28 09:39 | 11.76341 | -15.69954 | 3373 ft | 163 kts | 17° |
| 2026-04-28 09:40 | 11.77428 | -15.69619 | 3171 ft | 158 kts | 17° |
| 2026-04-28 09:40 | 11.78485 | -15.69307 | 2894 ft | 154 kts | 18° |
| 2026-04-28 09:40 | 11.79500 | -15.68979 | 2624 ft | 152 kts | 18° |
| 2026-04-28 09:40 | 11.80515 | -15.68606 | 2347 ft | 157 kts | 22° |
| 2026-04-28 09:41 | 11.81515 | -15.68190 | 2091 ft | 156 kts | 22° |
| 2026-04-28 09:41 | 11.82543 | -15.67805 | 1620 ft | 158 kts | 18° |
| 2026-04-28 09:41 | 11.83564 | -15.67438 | 1224 ft | 152 kts | 19° |
| 2026-04-28 09:41 | 11.84524 | -15.67069 | 871 ft | 145 kts | 18° |
| 2026-04-28 09:42 | 11.85492 | -15.66748 | 662 ft | 146 kts | 18° |
| 2026-04-28 09:42 | 11.86441 | -15.66404 | 502 ft | 143 kts | 17° |
| 2026-04-28 09:42 | 11.87385 | -15.66090 | 355 ft | 143 kts | 17° |
| 2026-04-28 09:42 | 11.88328 | -15.65766 | 149 ft | 135 kts | 16° |
| 2026-04-28 09:43 | 11.89109 | -15.65511 | 124 ft | 86 kts | 20° |
| 2026-04-28 09:43 | 11.89570 | -15.65351 | 107 ft | 58 kts | 18° |
| 2026-04-28 09:43 | 11.89901 | -15.65231 | 102 ft | 43 kts | 19° |
| 2026-04-28 09:43 | 11.90101 | -15.65157 | 104 ft | 20 kts | 31° |
| 2026-04-28 09:44 | 11.90130 | -15.65074 | 107 ft | 11 kts | 113° |
| 2026-04-28 09:44 | 11.90050 | -15.65052 | 107 ft | 15 kts | 192° |
| 2026-04-28 09:44 | 11.89950 | -15.65082 | 105 ft | 19 kts | 199° |
| 2026-04-28 09:44 | 11.89810 | -15.65131 | 102 ft | 22 kts | 199° |
| 2026-04-28 09:45 | 11.89657 | -15.65184 | 102 ft | 22 kts | 199° |
| 2026-04-28 09:45 | 11.89513 | -15.65234 | 104 ft | 20 kts | 199° |
| 2026-04-28 09:45 | 11.89383 | -15.65279 | 108 ft | 18 kts | 199° |
| 2026-04-28 09:45 | 11.89273 | -15.65320 | 112 ft | 7 kts | 200° |
| 2026-04-28 09:46 | 11.89240 | -15.65330 | 114 ft | 7 kts | 195° |
| 2026-04-28 09:46 | 11.89158 | -15.65354 | 117 ft | 15 kts | 198° |
| 2026-04-28 09:46 | 11.89047 | -15.65392 | 122 ft | 14 kts | 199° |
| 2026-04-28 09:46 | 11.88988 | -15.65414 | 125 ft | 5 kts | 200° |
| 2026-04-28 09:47 | 11.88957 | -15.65410 | 126 ft | 5 kts | 143° |
| 2026-04-28 09:47 | 11.88933 | -15.65366 | 125 ft | 9 kts | 111° |
| 2026-04-28 09:47 | 11.88918 | -15.65305 | 124 ft | 8 kts | 77° |
| 2026-04-28 09:47 | 11.88967 | -15.65272 | 121 ft | 6 kts | 18° |
| 2026-04-28 09:48 | 11.88994 | -15.65262 | 120 ft | 1 kts | 21° |
| 2026-04-28 09:48 | 11.88996 | -15.65255 | 120 ft | 1 kts | 103° |
| 2026-04-28 09:48 | 11.88992 | -15.65250 | 120 ft | 1 kts | 132° |
| 2026-04-28 09:48 | 11.88986 | -15.65247 | 120 ft | 1 kts | 163° |
| 2026-04-28 09:49 | 11.88983 | -15.65247 | 120 ft | 0 kts | 193° |
| 2026-04-28 09:49 | 11.88974 | -15.65250 | 121 ft | 1 kts | 196° |
| 2026-04-28 09:49 | 11.88972 | -15.65250 | 121 ft | 0 kts | 197° |
| 2026-04-28 09:49 | 11.88971 | -15.65251 | 121 ft | 0 kts | 197° |